sensor_id;sensor_type;location;lat;lon;timestamp;pressure;altitude;pressure_sealevel;temperature;humidity
2268;BME280;11052;43.338;25.502;2023-01-27T00:00:00;100135.13;;;2.60;100.00
2268;BME280;11052;43.338;25.502;2023-01-27T00:02:28;100131.69;;;2.67;100.00
2268;BME280;11052;43.338;25.502;2023-01-27T00:04:55;100128.28;;;2.65;100.00
2268;BME280;11052;43.338;25.502;2023-01-27T00:07:22;100123.16;;;2.65;100.00
2268;BME280;11052;43.338;25.502;2023-01-27T00:09:50;100119.75;;;2.69;100.00
2268;BME280;11052;43.338;25.502;2023-01-27T00:12:19;100115.47;;;2.79;100.00
2268;BME280;11052;43.338;25.502;2023-01-27T00:15:04;100120.56;;;2.83;100.00
2268;BME280;11052;43.338;25.502;2023-01-27T00:17:32;100112.91;;;2.86;100.00
2268;BME280;11052;43.338;25.502;2023-01-27T00:20:00;100110.31;;;2.92;100.00
2268;BME280;11052;43.338;25.502;2023-01-27T00:22:28;100113.72;;;2.97;100.00
2268;BME280;11052;43.338;25.502;2023-01-27T00:25:13;100112.88;;;2.88;100.00
2268;BME280;11052;43.338;25.502;2023-01-27T00:27:41;100121.41;;;2.91;100.00
2268;BME280;11052;43.338;25.502;2023-01-27T00:30:09;100122.28;;;2.84;100.00
2268;BME280;11052;43.338;25.502;2023-01-27T00:32:37;100115.47;;;2.73;100.00
2268;BME280;11052;43.338;25.502;2023-01-27T00:35:21;100118.03;;;2.80;100.00
2268;BME280;11052;43.338;25.502;2023-01-27T00:37:50;100118.03;;;2.79;100.00
2268;BME280;11052;43.338;25.502;2023-01-27T00:40:18;100117.19;;;2.66;100.00
2268;BME280;11052;43.338;25.502;2023-01-27T00:42:45;100112.09;;;2.58;100.00
2268;BME280;11052;43.338;25.502;2023-01-27T00:45:13;100120.63;;;2.54;100.00
2268;BME280;11052;43.338;25.502;2023-01-27T00:47:57;100122.31;;;2.63;100.00
2268;BME280;11052;43.338;25.502;2023-01-27T00:50:24;100118.06;;;2.56;100.00
2268;BME280;11052;43.338;25.502;2023-01-27T00:52:51;100127.47;;;2.43;100.00
2268;BME280;11052;43.338;25.502;2023-01-27T00:55:20;100122.34;;;2.45;100.00
2268;BME280;11052;43.338;25.502;2023-01-27T00:57:47;100126.59;;;2.47;100.00
2268;BME280;11052;43.338;25.502;2023-01-27T01:00:15;100128.31;;;2.44;100.00
2268;BME280;11052;43.338;25.502;2023-01-27T01:02:42;100130.00;;;2.37;100.00
2268;BME280;11052;43.338;25.502;2023-01-27T01:05:09;100136.84;;;2.30;100.00
2268;BME280;11052;43.338;25.502;2023-01-27T01:07:36;100139.38;;;2.32;100.00
2268;BME280;11052;43.338;25.502;2023-01-27T01:10:04;100143.66;;;2.50;100.00
2268;BME280;11052;43.338;25.502;2023-01-27T01:12:32;100153.03;;;2.46;100.00
2268;BME280;11052;43.338;25.502;2023-01-27T01:15:00;100147.91;;;2.37;100.00
2268;BME280;11052;43.338;25.502;2023-01-27T01:17:27;100137.69;;;2.45;100.00
2268;BME280;11052;43.338;25.502;2023-01-27T01:19:54;100136.84;;;2.49;100.00
2268;BME280;11052;43.338;25.502;2023-01-27T01:22:21;100131.72;;;2.38;100.00
2268;BME280;11052;43.338;25.502;2023-01-27T01:24:48;100123.19;;;2.44;100.00
2268;BME280;11052;43.338;25.502;2023-01-27T01:27:15;100134.28;;;2.26;100.00
2268;BME280;11052;43.338;25.502;2023-01-27T01:29:43;100129.13;;;2.14;100.00
2268;BME280;11052;43.338;25.502;2023-01-27T01:32:10;100118.91;;;2.20;100.00
2268;BME280;11052;43.338;25.502;2023-01-27T01:34:38;100098.47;;;2.18;100.00
2268;BME280;11052;43.338;25.502;2023-01-27T01:37:05;100090.78;;;2.15;100.00
2268;BME280;11052;43.338;25.502;2023-01-27T01:39:32;100096.75;;;2.22;100.00
2268;BME280;11052;43.338;25.502;2023-01-27T01:41:59;100103.59;;;2.23;100.00
2268;BME280;11052;43.338;25.502;2023-01-27T01:44:27;100102.72;;;2.13;100.00
2268;BME280;11052;43.338;25.502;2023-01-27T01:46:57;100094.19;;;2.20;100.00
2268;BME280;11052;43.338;25.502;2023-01-27T01:49:28;100089.94;;;2.35;100.00
2268;BME280;11052;43.338;25.502;2023-01-27T01:51:58;100084.84;;;2.32;100.00
2268;BME280;11052;43.338;25.502;2023-01-27T01:54:28;100078.00;;;2.26;100.00
2268;BME280;11052;43.338;25.502;2023-01-27T01:57:00;100079.72;;;2.24;100.00
2268;BME280;11052;43.338;25.502;2023-01-27T01:59:31;100081.41;;;2.23;100.00
2268;BME280;11052;43.338;25.502;2023-01-27T02:02:02;100084.81;;;2.21;100.00
2268;BME280;11052;43.338;25.502;2023-01-27T02:04:34;100099.31;;;2.10;100.00
2268;BME280;11052;43.338;25.502;2023-01-27T02:07:06;100098.44;;;2.06;100.00
2268;BME280;11052;43.338;25.502;2023-01-27T02:09:34;100105.28;;;2.19;100.00
2268;BME280;11052;43.338;25.502;2023-01-27T02:12:03;100101.03;;;2.14;100.00
2268;BME280;11052;43.338;25.502;2023-01-27T02:14:30;100090.78;;;2.09;100.00
2268;BME280;11052;43.338;25.502;2023-01-27T02:16:57;100078.00;;;2.15;100.00
2268;BME280;11052;43.338;25.502;2023-01-27T02:19:32;100077.16;;;2.10;100.00
2268;BME280;11052;43.338;25.502;2023-01-27T02:22:04;100074.59;;;2.09;100.00
2268;BME280;11052;43.338;25.502;2023-01-27T02:24:42;100080.56;;;2.12;100.00
2268;BME280;11052;43.338;25.502;2023-01-27T02:27:14;100078.00;;;2.08;100.00
2268;BME280;11052;43.338;25.502;2023-01-27T02:29:41;100068.63;;;2.08;100.00
2268;BME280;11052;43.338;25.502;2023-01-27T02:32:21;100040.50;;;2.13;100.00
2268;BME280;11052;43.338;25.502;2023-01-27T02:34:48;100031.13;;;2.12;100.00
2268;BME280;11052;43.338;25.502;2023-01-27T02:37:15;100027.72;;;2.11;100.00
2268;BME280;11052;43.338;25.502;2023-01-27T02:39:44;100026.03;;;2.15;100.00
2268;BME280;11052;43.338;25.502;2023-01-27T02:42:14;100031.13;;;2.16;100.00
2268;BME280;11052;43.338;25.502;2023-01-27T02:44:43;100017.50;;;2.19;100.00
2268;BME280;11052;43.338;25.502;2023-01-27T02:47:10;100019.19;;;2.18;100.00
2268;BME280;11052;43.338;25.502;2023-01-27T02:49:37;100030.28;;;2.11;100.00
2268;BME280;11052;43.338;25.502;2023-01-27T02:52:04;100022.63;;;2.19;100.00
2268;BME280;11052;43.338;25.502;2023-01-27T02:54:31;100019.19;;;2.24;100.00
2268;BME280;11052;43.338;25.502;2023-01-27T02:56:58;100041.34;;;2.19;100.00
2268;BME280;11052;43.338;25.502;2023-01-27T02:59:27;100044.78;;;2.24;100.00
2268;BME280;11052;43.338;25.502;2023-01-27T03:01:54;100051.59;;;2.07;100.00
2268;BME280;11052;43.338;25.502;2023-01-27T03:04:21;100050.72;;;2.08;100.00
2268;BME280;11052;43.338;25.502;2023-01-27T03:06:48;100051.59;;;2.21;100.00
2268;BME280;11052;43.338;25.502;2023-01-27T03:09:15;100048.19;;;2.20;100.00
2268;BME280;11052;43.338;25.502;2023-01-27T03:11:42;100026.88;;;2.08;100.00
2268;BME280;11052;43.338;25.502;2023-01-27T03:14:28;100037.09;;;1.98;100.00
2268;BME280;11052;43.338;25.502;2023-01-27T03:17:12;100039.66;;;2.08;100.00
2268;BME280;11052;43.338;25.502;2023-01-27T03:19:57;100028.56;;;2.18;100.00
2268;BME280;11052;43.338;25.502;2023-01-27T03:22:24;100041.38;;;2.16;100.00
2268;BME280;11052;43.338;25.502;2023-01-27T03:24:51;100057.56;;;2.15;100.00
2268;BME280;11052;43.338;25.502;2023-01-27T03:27:18;100060.09;;;2.06;100.00
2268;BME280;11052;43.338;25.502;2023-01-27T03:29:47;100047.31;;;2.08;100.00
2268;BME280;11052;43.338;25.502;2023-01-27T03:32:24;100058.41;;;2.08;100.00
2268;BME280;11052;43.338;25.502;2023-01-27T03:34:51;100078.00;;;2.14;100.00
2268;BME280;11052;43.338;25.502;2023-01-27T03:37:18;100066.06;;;2.13;100.00
2268;BME280;11052;43.338;25.502;2023-01-27T03:40:04;100055.84;;;2.16;100.00
2268;BME280;11052;43.338;25.502;2023-01-27T03:42:51;100045.63;;;2.17;100.00
2268;BME280;11052;43.338;25.502;2023-01-27T03:45:37;100046.47;;;2.16;100.00
2268;BME280;11052;43.338;25.502;2023-01-27T03:48:22;100049.03;;;2.18;100.00
2268;BME280;11052;43.338;25.502;2023-01-27T03:50:49;100040.50;;;2.17;100.00
2268;BME280;11052;43.338;25.502;2023-01-27T03:53:18;100044.78;;;2.23;100.00
2268;BME280;11052;43.338;25.502;2023-01-27T03:55:46;100044.78;;;2.18;100.00
2268;BME280;11052;43.338;25.502;2023-01-27T03:58:23;100053.28;;;2.19;100.00
2268;BME280;11052;43.338;25.502;2023-01-27T04:00:53;100049.03;;;2.15;100.00
2268;BME280;11052;43.338;25.502;2023-01-27T04:03:21;100062.66;;;2.09;100.00
2268;BME280;11052;43.338;25.502;2023-01-27T04:06:08;100072.03;;;2.07;100.00
2268;BME280;11052;43.338;25.502;2023-01-27T04:08:53;100083.94;;;1.96;100.00
2268;BME280;11052;43.338;25.502;2023-01-27T04:11:20;100065.22;;;1.97;100.00
2268;BME280;11052;43.338;25.502;2023-01-27T04:14:05;100059.25;;;2.00;100.00
2268;BME280;11052;43.338;25.502;2023-01-27T04:16:35;100061.81;;;1.96;100.00
2268;BME280;11052;43.338;25.502;2023-01-27T04:19:03;100049.03;;;2.06;100.00
2268;BME280;11052;43.338;25.502;2023-01-27T04:21:31;100039.66;;;1.98;100.00
2268;BME280;11052;43.338;25.502;2023-01-27T04:23:59;100033.69;;;1.96;100.00
2268;BME280;11052;43.338;25.502;2023-01-27T04:26:27;100042.22;;;2.00;100.00
2268;BME280;11052;43.338;25.502;2023-01-27T04:28:57;100047.31;;;2.12;100.00
2268;BME280;11052;43.338;25.502;2023-01-27T04:31:25;100043.06;;;2.07;100.00
2268;BME280;11052;43.338;25.502;2023-01-27T04:33:54;100038.81;;;2.00;100.00
2268;BME280;11052;43.338;25.502;2023-01-27T04:36:21;100037.09;;;1.98;100.00
2268;BME280;11052;43.338;25.502;2023-01-27T04:38:48;100046.47;;;2.00;100.00
2268;BME280;11052;43.338;25.502;2023-01-27T04:41:15;100037.09;;;1.97;100.00
2268;BME280;11052;43.338;25.502;2023-01-27T04:43:42;100037.94;;;1.91;100.00
2268;BME280;11052;43.338;25.502;2023-01-27T04:46:09;100049.88;;;1.91;100.00
2268;BME280;11052;43.338;25.502;2023-01-27T04:48:36;100055.84;;;1.99;100.00
2268;BME280;11052;43.338;25.502;2023-01-27T04:51:05;100051.59;;;2.16;100.00
2268;BME280;11052;43.338;25.502;2023-01-27T04:53:32;100049.03;;;2.15;100.00
2268;BME280;11052;43.338;25.502;2023-01-27T04:56:04;100052.44;;;1.95;100.00
2268;BME280;11052;43.338;25.502;2023-01-27T04:58:32;100057.53;;;2.00;100.00
2268;BME280;11052;43.338;25.502;2023-01-27T05:00:59;100058.38;;;1.88;100.00
2268;BME280;11052;43.338;25.502;2023-01-27T05:03:26;100054.97;;;1.97;100.00
2268;BME280;11052;43.338;25.502;2023-01-27T05:05:53;100054.97;;;1.85;100.00
2268;BME280;11052;43.338;25.502;2023-01-27T05:08:21;100055.84;;;1.96;100.00
2268;BME280;11052;43.338;25.502;2023-01-27T05:10:49;100052.44;;;2.05;100.00
2268;BME280;11052;43.338;25.502;2023-01-27T05:13:17;100041.34;;;1.92;100.00
2268;BME280;11052;43.338;25.502;2023-01-27T05:15:44;100052.44;;;1.92;100.00
2268;BME280;11052;43.338;25.502;2023-01-27T05:18:11;100046.47;;;1.96;100.00
2268;BME280;11052;43.338;25.502;2023-01-27T05:20:38;100020.06;;;1.93;100.00
2268;BME280;11052;43.338;25.502;2023-01-27T05:23:05;100012.38;;;1.91;100.00
2268;BME280;11052;43.338;25.502;2023-01-27T05:25:51;100026.88;;;1.82;100.00
2268;BME280;11052;43.338;25.502;2023-01-27T05:28:18;100024.31;;;1.86;100.00
2268;BME280;11052;43.338;25.502;2023-01-27T05:30:45;100031.13;;;1.87;100.00
2268;BME280;11052;43.338;25.502;2023-01-27T05:33:12;100032.84;;;1.96;100.00
2268;BME280;11052;43.338;25.502;2023-01-27T05:35:39;100039.63;;;1.83;100.00
2268;BME280;11052;43.338;25.502;2023-01-27T05:38:06;100047.31;;;1.95;100.00
2268;BME280;11052;43.338;25.502;2023-01-27T05:40:33;100043.06;;;2.07;100.00
2268;BME280;11052;43.338;25.502;2023-01-27T05:43:02;100040.50;;;1.91;100.00
2268;BME280;11052;43.338;25.502;2023-01-27T05:45:29;100034.53;;;1.91;100.00
2268;BME280;11052;43.338;25.502;2023-01-27T05:47:56;100026.88;;;1.98;100.00
2268;BME280;11052;43.338;25.502;2023-01-27T05:50:23;100030.28;;;1.93;100.00
2268;BME280;11052;43.338;25.502;2023-01-27T05:52:50;100041.34;;;1.86;100.00
2268;BME280;11052;43.338;25.502;2023-01-27T05:55:17;100038.78;;;1.92;100.00
2268;BME280;11052;43.338;25.502;2023-01-27T05:57:44;100037.09;;;2.00;100.00
2268;BME280;11052;43.338;25.502;2023-01-27T06:00:14;100042.19;;;1.92;100.00
2268;BME280;11052;43.338;25.502;2023-01-27T06:02:41;100045.63;;;2.01;100.00
2268;BME280;11052;43.338;25.502;2023-01-27T06:05:08;100049.00;;;1.89;100.00
2268;BME280;11052;43.338;25.502;2023-01-27T06:07:35;100054.97;;;1.97;100.00
2268;BME280;11052;43.338;25.502;2023-01-27T06:10:03;100053.28;;;1.93;100.00
2268;BME280;11052;43.338;25.502;2023-01-27T06:12:30;100054.13;;;2.00;100.00
2268;BME280;11052;43.338;25.502;2023-01-27T06:14:57;100060.09;;;2.05;100.00
2268;BME280;11052;43.338;25.502;2023-01-27T06:17:26;100060.09;;;2.06;100.00
2268;BME280;11052;43.338;25.502;2023-01-27T06:19:53;100066.06;;;2.07;100.00
2268;BME280;11052;43.338;25.502;2023-01-27T06:22:20;100070.31;;;1.98;100.00
2268;BME280;11052;43.338;25.502;2023-01-27T06:24:47;100082.25;;;1.95;100.00
2268;BME280;11052;43.338;25.502;2023-01-27T06:27:14;100072.03;;;2.07;100.00
2268;BME280;11052;43.338;25.502;2023-01-27T06:29:41;100066.06;;;2.01;100.00
2268;BME280;11052;43.338;25.502;2023-01-27T06:32:08;100066.03;;;1.85;100.00
2268;BME280;11052;43.338;25.502;2023-01-27T06:34:37;100067.78;;;2.02;100.00
2268;BME280;11052;43.338;25.502;2023-01-27T06:37:04;100078.00;;;1.97;100.00
2268;BME280;11052;43.338;25.502;2023-01-27T06:39:31;100074.56;;;1.95;100.00
2268;BME280;11052;43.338;25.502;2023-01-27T06:41:58;100067.75;;;1.91;100.00
2268;BME280;11052;43.338;25.502;2023-01-27T06:44:25;100061.81;;;1.95;100.00
2268;BME280;11052;43.338;25.502;2023-01-27T06:46:53;100055.00;;;1.98;100.00
2268;BME280;11052;43.338;25.502;2023-01-27T06:49:20;100043.91;;;2.09;100.00
2268;BME280;11052;43.338;25.502;2023-01-27T06:51:48;100045.63;;;1.93;100.00
2268;BME280;11052;43.338;25.502;2023-01-27T06:54:15;100052.44;;;1.92;100.00
2268;BME280;11052;43.338;25.502;2023-01-27T06:56:42;100060.09;;;1.89;100.00
2268;BME280;11052;43.338;25.502;2023-01-27T06:59:09;100072.00;;;1.77;100.00
2268;BME280;11052;43.338;25.502;2023-01-27T07:01:36;100078.84;;;1.96;100.00
2268;BME280;11052;43.338;25.502;2023-01-27T07:04:03;100077.97;;;1.94;100.00
2268;BME280;11052;43.338;25.502;2023-01-27T07:06:31;100070.31;;;1.88;100.00
2268;BME280;11052;43.338;25.502;2023-01-27T07:08:59;100070.31;;;1.94;100.00
2268;BME280;11052;43.338;25.502;2023-01-27T07:11:26;100070.31;;;1.91;100.00
2268;BME280;11052;43.338;25.502;2023-01-27T07:13:53;100072.88;;;1.97;100.00
2268;BME280;11052;43.338;25.502;2023-01-27T07:16:20;100066.06;;;1.87;100.00
2268;BME280;11052;43.338;25.502;2023-01-27T07:18:47;100062.63;;;1.85;100.00
2268;BME280;11052;43.338;25.502;2023-01-27T07:21:14;100063.50;;;1.90;100.00
2268;BME280;11052;43.338;25.502;2023-01-27T07:23:41;100059.25;;;1.90;100.00
2268;BME280;11052;43.338;25.502;2023-01-27T07:26:10;100064.34;;;1.96;100.00
2268;BME280;11052;43.338;25.502;2023-01-27T07:28:37;100070.31;;;1.98;100.00
2268;BME280;11052;43.338;25.502;2023-01-27T07:31:04;100080.53;;;1.97;100.00
2268;BME280;11052;43.338;25.502;2023-01-27T07:33:31;100078.84;;;1.97;100.00
2268;BME280;11052;43.338;25.502;2023-01-27T07:35:58;100082.25;;;1.90;100.00
2268;BME280;11052;43.338;25.502;2023-01-27T07:38:25;100097.59;;;1.96;100.00
2268;BME280;11052;43.338;25.502;2023-01-27T07:40:53;100083.94;;;1.96;100.00
2268;BME280;11052;43.338;25.502;2023-01-27T07:43:21;100085.66;;;1.91;100.00
2268;BME280;11052;43.338;25.502;2023-01-27T07:45:52;100089.06;;;2.04;100.00
2268;BME280;11052;43.338;25.502;2023-01-27T07:48:21;100091.63;;;2.05;100.00
2268;BME280;11052;43.338;25.502;2023-01-27T07:50:48;100096.75;;;2.07;100.00
2268;BME280;11052;43.338;25.502;2023-01-27T07:53:15;100101.84;;;2.02;100.00
2268;BME280;11052;43.338;25.502;2023-01-27T07:55:42;100100.16;;;2.09;100.00
2268;BME280;11052;43.338;25.502;2023-01-27T07:58:10;100104.38;;;1.91;100.00
2268;BME280;11052;43.338;25.502;2023-01-27T08:00:38;100104.41;;;2.01;100.00
2268;BME280;11052;43.338;25.502;2023-01-27T08:03:05;100094.19;;;2.04;100.00
2268;BME280;11052;43.338;25.502;2023-01-27T08:05:35;100083.09;;;1.97;100.00
2268;BME280;11052;43.338;25.502;2023-01-27T08:08:03;100078.84;;;2.01;100.00
2268;BME280;11052;43.338;25.502;2023-01-27T08:10:30;100084.81;;;2.00;100.00
2268;BME280;11052;43.338;25.502;2023-01-27T08:12:57;100080.53;;;1.91;100.00
2268;BME280;11052;43.338;25.502;2023-01-27T08:15:24;100072.03;;;2.01;100.00
2268;BME280;11052;43.338;25.502;2023-01-27T08:17:54;100071.19;;;2.08;100.00
2268;BME280;11052;43.338;25.502;2023-01-27T08:20:21;100060.09;;;2.06;100.00
2268;BME280;11052;43.338;25.502;2023-01-27T08:22:48;100055.84;;;1.97;100.00
2268;BME280;11052;43.338;25.502;2023-01-27T08:25:16;100047.31;;;2.00;100.00
2268;BME280;11052;43.338;25.502;2023-01-27T08:27:43;100052.44;;;2.06;100.00
2268;BME280;11052;43.338;25.502;2023-01-27T08:30:10;100048.19;;;2.08;100.00
2268;BME280;11052;43.338;25.502;2023-01-27T08:32:37;100048.19;;;2.14;100.00
2268;BME280;11052;43.338;25.502;2023-01-27T08:35:07;100049.03;;;2.12;100.00
2268;BME280;11052;43.338;25.502;2023-01-27T08:37:34;100050.75;;;2.25;100.00
2268;BME280;11052;43.338;25.502;2023-01-27T08:40:01;100041.34;;;2.22;100.00
2268;BME280;11052;43.338;25.502;2023-01-27T08:42:28;100027.72;;;2.22;100.00
2268;BME280;11052;43.338;25.502;2023-01-27T08:44:56;100033.69;;;2.25;100.00
2268;BME280;11052;43.338;25.502;2023-01-27T08:47:25;100037.09;;;2.23;100.00
2268;BME280;11052;43.338;25.502;2023-01-27T08:49:52;100029.44;;;2.24;100.00
2268;BME280;11052;43.338;25.502;2023-01-27T08:52:20;100021.75;;;2.23;100.00
2268;BME280;11052;43.338;25.502;2023-01-27T08:54:48;100023.47;;;2.22;100.00
2268;BME280;11052;43.338;25.502;2023-01-27T08:57:15;100026.00;;;2.30;100.00
2268;BME280;11052;43.338;25.502;2023-01-27T08:59:42;100023.44;;;2.32;100.00
2268;BME280;11052;43.338;25.502;2023-01-27T09:02:12;100014.94;;;2.25;100.00
2268;BME280;11052;43.338;25.502;2023-01-27T09:04:39;100010.69;;;2.13;100.00
2268;BME280;11052;43.338;25.502;2023-01-27T09:07:09;100011.53;;;2.14;100.00
2268;BME280;11052;43.338;25.502;2023-01-27T09:09:37;100011.53;;;2.21;100.00
2268;BME280;11052;43.338;25.502;2023-01-27T09:12:04;100011.53;;;2.29;100.00
2268;BME280;11052;43.338;25.502;2023-01-27T09:14:32;100011.50;;;2.37;100.00
2268;BME280;11052;43.338;25.502;2023-01-27T09:17:00;100014.91;;;2.39;100.00
2268;BME280;11052;43.338;25.502;2023-01-27T09:19:27;100015.78;;;2.41;100.00
2268;BME280;11052;43.338;25.502;2023-01-27T09:21:54;100022.59;;;2.37;100.00
2268;BME280;11052;43.338;25.502;2023-01-27T09:24:21;100016.63;;;2.40;100.00
2268;BME280;11052;43.338;25.502;2023-01-27T09:26:50;100024.31;;;2.37;100.00
2268;BME280;11052;43.338;25.502;2023-01-27T09:29:17;100027.69;;;2.46;100.00
2268;BME280;11052;43.338;25.502;2023-01-27T09:31:44;100026.84;;;2.43;100.00
2268;BME280;11052;43.338;25.502;2023-01-27T09:34:11;100024.28;;;2.46;100.00
2268;BME280;11052;43.338;25.502;2023-01-27T09:36:41;100017.47;;;2.37;100.00
2268;BME280;11052;43.338;25.502;2023-01-27T09:39:09;100009.78;;;2.43;100.00
2268;BME280;11052;43.338;25.502;2023-01-27T09:41:58;99998.69;;;2.50;100.00
2268;BME280;11052;43.338;25.502;2023-01-27T09:44:50;100003.84;;;2.30;100.00
2268;BME280;11052;43.338;25.502;2023-01-27T09:47:28;100000.44;;;2.35;100.00
2268;BME280;11052;43.338;25.502;2023-01-27T09:50:35;99999.56;;;2.49;100.00
2268;BME280;11052;43.338;25.502;2023-01-27T09:53:33;99999.56;;;2.43;100.00
2268;BME280;11052;43.338;25.502;2023-01-27T09:56:07;99992.75;;;2.33;100.00
2268;BME280;11052;43.338;25.502;2023-01-27T09:58:48;99995.31;;;2.44;100.00
2268;BME280;11052;43.338;25.502;2023-01-27T10:01:25;99987.63;;;2.48;100.00
2268;BME280;11052;43.338;25.502;2023-01-27T10:04:14;99987.59;;;2.56;100.00
2268;BME280;11052;43.338;25.502;2023-01-27T10:06:57;99987.63;;;2.44;100.00
2268;BME280;11052;43.338;25.502;2023-01-27T10:09:56;99977.41;;;2.36;100.00
2268;BME280;11052;43.338;25.502;2023-01-27T10:12:53;99979.97;;;2.32;100.00
2268;BME280;11052;43.338;25.502;2023-01-27T10:15:34;99974.88;;;2.25;100.00
2268;BME280;11052;43.338;25.502;2023-01-27T10:18:14;99972.31;;;2.30;100.00
2268;BME280;11052;43.338;25.502;2023-01-27T10:20:50;99973.13;;;2.41;100.00
2268;BME280;11052;43.338;25.502;2023-01-27T10:23:35;99972.28;;;2.36;100.00
2268;BME280;11052;43.338;25.502;2023-01-27T10:26:16;99972.31;;;2.33;100.00
2268;BME280;11052;43.338;25.502;2023-01-27T10:28:50;99963.81;;;2.10;100.00
2268;BME280;11052;43.338;25.502;2023-01-27T10:31:23;99968.06;;;2.27;100.00
2268;BME280;11052;43.338;25.502;2023-01-27T10:33:52;99961.22;;;2.36;100.00
2268;BME280;11052;43.338;25.502;2023-01-27T10:36:25;99956.09;;;2.33;100.00
2268;BME280;11052;43.338;25.502;2023-01-27T10:39:02;99953.53;;;2.34;100.00
2268;BME280;11052;43.338;25.502;2023-01-27T10:41:40;99945.03;;;2.35;100.00
2268;BME280;11052;43.338;25.502;2023-01-27T10:44:19;99932.25;;;2.21;100.00
2268;BME280;11052;43.338;25.502;2023-01-27T10:46:56;99931.41;;;2.22;100.00
2268;BME280;11052;43.338;25.502;2023-01-27T10:49:29;99931.41;;;2.18;100.00
2268;BME280;11052;43.338;25.502;2023-01-27T10:51:59;99933.09;;;2.26;100.00
2268;BME280;11052;43.338;25.502;2023-01-27T10:54:31;99930.56;;;2.20;100.00
2268;BME280;11052;43.338;25.502;2023-01-27T10:57:04;99927.16;;;2.21;100.00
2268;BME280;11052;43.338;25.502;2023-01-27T10:59:37;99932.28;;;2.09;100.00
2268;BME280;11052;43.338;25.502;2023-01-27T11:02:13;99924.63;;;2.12;100.00
2268;BME280;11052;43.338;25.502;2023-01-27T11:04:45;99924.59;;;2.18;100.00
2268;BME280;11052;43.338;25.502;2023-01-27T11:07:16;99920.34;;;2.16;100.00
2268;BME280;11052;43.338;25.502;2023-01-27T11:09:48;99924.63;;;2.05;100.00
2268;BME280;11052;43.338;25.502;2023-01-27T11:12:25;99922.06;;;2.08;100.00
2268;BME280;11052;43.338;25.502;2023-01-27T11:14:55;99910.97;;;2.10;100.00
2268;BME280;11052;43.338;25.502;2023-01-27T11:17:30;99905.88;;;2.10;100.00
2268;BME280;11052;43.338;25.502;2023-01-27T11:20:03;99901.59;;;2.17;100.00
2268;BME280;11052;43.338;25.502;2023-01-27T11:22:36;99904.16;;;2.08;100.00
2268;BME280;11052;43.338;25.502;2023-01-27T11:25:17;99897.34;;;2.07;100.00
2268;BME280;11052;43.338;25.502;2023-01-27T11:27:58;99896.50;;;2.02;100.00
2268;BME280;11052;43.338;25.502;2023-01-27T11:30:35;99897.38;;;2.02;100.00
2268;BME280;11052;43.338;25.502;2023-01-27T11:33:12;99887.97;;;2.07;100.00
2268;BME280;11052;43.338;25.502;2023-01-27T11:35:43;99893.06;;;2.13;100.00
2268;BME280;11052;43.338;25.502;2023-01-27T11:38:14;99894.78;;;2.11;100.00
2268;BME280;11052;43.338;25.502;2023-01-27T11:40:43;99891.38;;;2.14;100.00
2268;BME280;11052;43.338;25.502;2023-01-27T11:43:15;99893.94;;;2.06;100.00
2268;BME280;11052;43.338;25.502;2023-01-27T11:45:44;99892.22;;;2.13;100.00
2268;BME280;11052;43.338;25.502;2023-01-27T11:48:15;99892.22;;;2.17;100.00
2268;BME280;11052;43.338;25.502;2023-01-27T11:50:44;99892.22;;;2.16;100.00
2268;BME280;11052;43.338;25.502;2023-01-27T11:53:15;99887.97;;;2.07;100.00
2268;BME280;11052;43.338;25.502;2023-01-27T11:55:46;99885.41;;;2.13;100.00
2268;BME280;11052;43.338;25.502;2023-01-27T11:58:20;99889.66;;;2.14;100.00
2268;BME280;11052;43.338;25.502;2023-01-27T12:00:52;99889.66;;;2.14;100.00
2268;BME280;11052;43.338;25.502;2023-01-27T12:03:27;99888.78;;;2.21;100.00
2268;BME280;11052;43.338;25.502;2023-01-27T12:06:01;99883.69;;;2.18;100.00
2268;BME280;11052;43.338;25.502;2023-01-27T12:08:41;99886.22;;;2.27;100.00
2268;BME280;11052;43.338;25.502;2023-01-27T12:11:18;99896.47;;;2.18;100.00
2268;BME280;11052;43.338;25.502;2023-01-27T12:13:50;99892.22;;;2.17;100.00
2268;BME280;11052;43.338;25.502;2023-01-27T12:16:18;99896.47;;;2.21;100.00
2268;BME280;11052;43.338;25.502;2023-01-27T12:18:51;99899.88;;;2.17;100.00
2268;BME280;11052;43.338;25.502;2023-01-27T12:21:20;99899.91;;;2.11;100.00
2268;BME280;11052;43.338;25.502;2023-01-27T12:23:59;99903.28;;;2.19;100.00
2268;BME280;11052;43.338;25.502;2023-01-27T12:26:30;99900.75;;;2.16;100.00
2268;BME280;11052;43.338;25.502;2023-01-27T12:29:04;99902.47;;;2.11;100.00
2268;BME280;11052;43.338;25.502;2023-01-27T12:31:43;99903.31;;;2.12;100.00
2268;BME280;11052;43.338;25.502;2023-01-27T12:34:25;99903.31;;;2.13;100.00
2268;BME280;11052;43.338;25.502;2023-01-27T12:36:54;99906.69;;;2.18;100.00
2268;BME280;11052;43.338;25.502;2023-01-27T12:39:38;99903.28;;;2.16;100.00
2268;BME280;11052;43.338;25.502;2023-01-27T12:42:34;99897.31;;;2.19;100.00
2268;BME280;11052;43.338;25.502;2023-01-27T12:45:21;99900.75;;;2.10;100.00
2268;BME280;11052;43.338;25.502;2023-01-27T12:47:57;99902.47;;;1.96;100.00
2268;BME280;11052;43.338;25.502;2023-01-27T12:50:28;99902.47;;;2.01;100.00
2268;BME280;11052;43.338;25.502;2023-01-27T12:53:10;99906.72;;;2.08;100.00
2268;BME280;11052;43.338;25.502;2023-01-27T12:55:40;99903.31;;;2.06;100.00
2268;BME280;11052;43.338;25.502;2023-01-27T12:58:29;99896.50;;;2.09;100.00
2268;BME280;11052;43.338;25.502;2023-01-27T13:00:59;99901.63;;;1.97;100.00
2268;BME280;11052;43.338;25.502;2023-01-27T13:03:27;99901.63;;;2.00;100.00
2268;BME280;11052;43.338;25.502;2023-01-27T13:05:58;99908.47;;;1.86;100.00
2268;BME280;11052;43.338;25.502;2023-01-27T13:08:27;99911.88;;;1.85;100.00
2268;BME280;11052;43.338;25.502;2023-01-27T13:11:00;99912.72;;;1.91;100.00